Queenston, Canada
Current Conditions -  °F | °C
As of 2:00 PM on Monday 20 Oct 2014 (Local Time) from CYSN Reporting Station
Overcast Overcast  
Wind Chill: 55°   Ceiling: 6100
Heat Index: 55°   Visibility: 15mi
Dew Point: 48°   Wind: 14mph
Humidity: 77%   Direction: 220°SW
Pressure: 29.82"   Gusts: NA
Location:  43.17°N, 79.05°W
Report Text: CYSN 201800Z 22012KT 15SM SCT026 OVC061 13/09 A2982 RMK SC4SC4 SLP099
Loading
Personal Weather Stations






























Interactive Weather Map
Tropical Storm Tracking
New forecast layout! Learn more

10-Day Weather Forecast

Advertisements
Track Severe Weather on mobile